createdAt,value
2018-03-26T00:02:12.068Z,9.77
2018-03-26T00:04:39.452Z,9.82
2018-03-26T00:07:06.885Z,9.79
2018-03-26T00:09:34.244Z,9.73
2018-03-26T00:12:01.644Z,9.72
2018-03-26T00:14:29.016Z,9.77
2018-03-26T00:16:56.446Z,9.77
2018-03-26T00:19:23.824Z,9.63
2018-03-26T00:21:51.262Z,9.63
2018-03-26T00:24:18.607Z,9.76
2018-03-26T00:26:45.999Z,9.70
2018-03-26T00:29:13.384Z,9.74
2018-03-26T00:31:40.769Z,9.67
2018-03-26T00:34:08.165Z,9.64
2018-03-26T00:36:35.540Z,9.53
2018-03-26T00:39:02.946Z,9.49
2018-03-26T00:41:30.328Z,9.35
2018-03-26T00:43:57.700Z,9.27
2018-03-26T00:46:25.085Z,9.11
2018-03-26T00:48:52.464Z,9.08
2018-03-26T00:51:19.856Z,8.99
2018-03-26T00:53:47.338Z,8.91
2018-03-26T00:56:14.721Z,8.87
2018-03-26T00:58:42.105Z,8.84
2018-03-26T01:01:09.488Z,8.87
2018-03-26T01:03:37.193Z,8.80
2018-03-26T01:06:04.572Z,8.88
2018-03-26T01:08:31.960Z,8.91
2018-03-26T01:10:59.333Z,8.97
2018-03-26T01:13:26.740Z,8.99
2018-03-26T01:15:54.128Z,9.06
2018-03-26T01:18:21.520Z,9.05
2018-03-26T01:20:48.904Z,9.05
2018-03-26T01:23:16.292Z,9.13
2018-03-26T01:25:43.672Z,9.12
2018-03-26T01:28:11.064Z,9.14
2018-03-26T01:30:38.444Z,9.15
2018-03-26T01:33:05.825Z,9.14
2018-03-26T01:35:33.208Z,9.13
2018-03-26T01:38:00.605Z,9.11
2018-03-26T01:40:27.980Z,9.14
2018-03-26T01:42:55.377Z,9.15
2018-03-26T01:45:22.766Z,9.14
2018-03-26T01:47:50.149Z,9.14
2018-03-26T01:50:17.533Z,9.14
2018-03-26T01:52:44.919Z,9.15
2018-03-26T01:55:12.301Z,9.10
2018-03-26T01:57:39.684Z,9.00
2018-03-26T02:00:07.072Z,9.00
2018-03-26T02:02:34.460Z,8.99
2018-03-26T02:05:01.850Z,8.92
2018-03-26T02:07:29.230Z,8.88
2018-03-26T02:09:56.620Z,8.93
2018-03-26T02:12:23.996Z,8.94
2018-03-26T02:14:51.377Z,8.90
2018-03-26T02:17:18.772Z,8.91
2018-03-26T02:19:46.153Z,8.82
2018-03-26T02:22:13.542Z,8.81
2018-03-26T02:24:40.920Z,8.78
2018-03-26T02:27:08.329Z,8.81
2018-03-26T02:29:35.704Z,8.70
2018-03-26T02:32:03.085Z,8.69
2018-03-26T02:34:30.470Z,8.69
2018-03-26T02:36:57.871Z,8.64
2018-03-26T02:39:25.256Z,8.59
2018-03-26T02:41:52.644Z,8.38
2018-03-26T02:44:20.025Z,8.39
2018-03-26T02:46:47.406Z,8.36
2018-03-26T02:49:15.062Z,8.35
2018-03-26T02:51:42.441Z,8.42
2018-03-26T02:54:09.821Z,8.33
2018-03-26T02:56:37.209Z,8.45
2018-03-26T02:59:04.601Z,8.43
2018-03-26T03:01:31.986Z,8.33
2018-03-26T03:03:59.370Z,8.36
2018-03-26T03:06:26.778Z,8.36
2018-03-26T03:08:54.152Z,8.24
2018-03-26T03:11:21.537Z,8.16
2018-03-26T03:13:48.952Z,8.14
2018-03-26T03:16:16.300Z,8.17
2018-03-26T03:18:43.689Z,8.20
2018-03-26T03:21:11.074Z,8.24
2018-03-26T03:23:38.709Z,8.17
2018-03-26T03:26:06.097Z,8.19
2018-03-26T03:28:33.467Z,8.11
2018-03-26T03:31:00.860Z,8.10
2018-03-26T03:33:28.237Z,8.17
2018-03-26T03:35:55.626Z,8.17
2018-03-26T03:38:23.018Z,8.07
2018-03-26T03:40:50.417Z,8.07
2018-03-26T03:43:17.801Z,8.09
2018-03-26T03:45:45.184Z,7.96
2018-03-26T03:48:12.581Z,8.09
2018-03-26T03:50:39.964Z,8.07
2018-03-26T03:53:07.353Z,8.00
2018-03-26T03:55:34.737Z,8.01
2018-03-26T03:58:02.137Z,8.11
2018-03-26T04:00:29.502Z,8.09
2018-03-26T04:02:56.879Z,8.08
2018-03-26T04:05:24.269Z,8.10
2018-03-26T04:07:51.648Z,8.12
2018-03-26T04:10:19.040Z,8.11
2018-03-26T04:12:46.424Z,8.12
2018-03-26T04:15:13.807Z,8.16
2018-03-26T04:17:41.197Z,8.24
2018-03-26T04:20:08.576Z,8.22
2018-03-26T04:22:35.977Z,8.33
2018-03-26T04:25:03.361Z,8.24
2018-03-26T04:27:30.752Z,8.20
2018-03-26T04:29:58.137Z,8.17
2018-03-26T04:32:25.550Z,8.13
2018-03-26T04:34:52.940Z,8.18
2018-03-26T04:37:20.324Z,8.07
2018-03-26T04:39:47.721Z,7.92
2018-03-26T04:42:15.108Z,7.84
2018-03-26T04:44:42.516Z,7.81
2018-03-26T04:47:09.914Z,7.75
2018-03-26T04:49:37.325Z,7.83
2018-03-26T04:52:04.705Z,7.83
2018-03-26T04:54:32.092Z,7.89
2018-03-26T04:56:59.488Z,7.91
2018-03-26T04:59:26.884Z,7.95
2018-03-26T05:01:54.277Z,7.83
2018-03-26T05:04:21.665Z,7.83
2018-03-26T05:06:49.089Z,7.79
2018-03-26T05:09:16.480Z,7.65
2018-03-26T05:11:49.621Z,7.57
2018-03-26T05:14:17.012Z,7.57
2018-03-26T05:16:44.397Z,7.63
2018-03-26T05:19:11.789Z,7.64
2018-03-26T05:21:39.180Z,7.54
2018-03-26T05:24:06.576Z,7.50
2018-03-26T05:26:33.965Z,7.38
2018-03-26T05:29:01.636Z,7.38
2018-03-26T05:31:29.017Z,7.30
2018-03-26T05:33:56.403Z,7.26
2018-03-26T05:36:23.796Z,7.12
2018-03-26T05:38:51.185Z,7.02
2018-03-26T05:41:18.585Z,7.05
2018-03-26T05:43:45.975Z,7.10
2018-03-26T05:46:13.373Z,7.03
2018-03-26T05:48:40.759Z,7.07
2018-03-26T05:51:08.149Z,7.06
2018-03-26T05:53:35.540Z,6.97
2018-03-26T05:56:02.924Z,7.04
2018-03-26T05:58:30.486Z,6.98
2018-03-26T06:00:57.872Z,6.96
2018-03-26T06:03:25.268Z,6.97
2018-03-26T06:05:52.880Z,6.95
2018-03-26T06:08:20.281Z,6.95
2018-03-26T06:10:47.701Z,7.01
2018-03-26T06:13:15.084Z,7.05
2018-03-26T06:15:42.473Z,7.15
2018-03-26T06:18:09.860Z,7.29
2018-03-26T06:20:37.268Z,7.43
2018-03-26T06:23:04.657Z,7.55
2018-03-26T06:25:32.036Z,7.58
2018-03-26T06:27:59.429Z,7.64
2018-03-26T06:30:26.823Z,7.71
2018-03-26T06:32:54.212Z,7.77
2018-03-26T06:35:21.600Z,7.78
2018-03-26T06:40:55.933Z,7.86
2018-03-26T06:43:23.349Z,7.82
2018-03-26T06:45:50.725Z,7.95
2018-03-26T06:48:18.148Z,7.87
2018-03-26T06:50:45.528Z,7.92
2018-03-26T06:53:12.913Z,7.77
2018-03-26T06:55:40.339Z,7.92
2018-03-26T06:58:07.748Z,7.91
2018-03-26T07:00:36.619Z,8.01
2018-03-26T07:03:03.991Z,8.20
2018-03-26T07:05:31.440Z,8.26
2018-03-26T07:07:58.884Z,8.15
2018-03-26T07:10:26.269Z,8.26
2018-03-26T07:12:57.241Z,8.24
2018-03-26T07:15:24.629Z,8.15
2018-03-26T07:17:52.016Z,8.20
2018-03-26T07:20:19.396Z,8.27
2018-03-26T07:22:46.792Z,8.31
2018-03-26T07:25:14.172Z,8.24
2018-03-26T07:27:41.929Z,8.19
2018-03-26T07:30:09.317Z,8.19
2018-03-26T07:32:36.712Z,8.10
2018-03-26T07:35:04.117Z,8.22
2018-03-26T07:37:31.492Z,8.34
2018-03-26T07:39:58.884Z,8.32
2018-03-26T07:42:26.261Z,8.35
2018-03-26T07:44:53.654Z,8.43
2018-03-26T07:47:21.041Z,8.49
2018-03-26T07:49:48.423Z,8.46
2018-03-26T07:52:15.816Z,8.50
2018-03-26T07:54:43.206Z,8.59
2018-03-26T07:57:10.589Z,8.62
2018-03-26T07:59:38.087Z,8.60
2018-03-26T08:02:05.589Z,8.79
2018-03-26T08:04:33.001Z,8.80
2018-03-26T08:07:00.377Z,8.83
2018-03-26T08:09:27.760Z,8.99
2018-03-26T08:11:55.144Z,9.00
2018-03-26T08:14:22.533Z,9.10
2018-03-26T08:16:49.990Z,9.10
2018-03-26T08:19:17.386Z,9.20
2018-03-26T08:21:44.772Z,9.42
2018-03-26T08:24:12.173Z,9.52
2018-03-26T08:26:39.548Z,9.60
2018-03-26T08:29:06.973Z,9.61
2018-03-26T08:31:34.444Z,9.61
2018-03-26T08:34:01.821Z,9.67
2018-03-26T08:36:29.261Z,9.80
2018-03-26T08:38:56.600Z,9.84
2018-03-26T08:41:24.251Z,9.72
2018-03-26T08:43:51.629Z,9.83
2018-03-26T08:46:19.021Z,9.93
2018-03-26T08:48:46.409Z,9.94
2018-03-26T08:51:17.369Z,9.45
2018-03-26T08:53:44.761Z,9.74
2018-03-26T08:56:12.148Z,9.78
2018-03-26T08:58:39.565Z,9.83
2018-03-26T09:01:06.977Z,9.91
2018-03-26T09:03:34.365Z,9.94
2018-03-26T09:06:01.752Z,10.13
2018-03-26T09:08:29.145Z,10.09
2018-03-26T09:10:56.534Z,9.94
2018-03-26T09:13:23.916Z,10.26
2018-03-26T09:15:51.344Z,10.52
2018-03-26T09:18:18.741Z,10.62
2018-03-26T09:20:46.141Z,10.62
2018-03-26T09:23:13.536Z,11.13
2018-03-26T09:25:40.924Z,11.39
2018-03-26T09:28:08.326Z,11.50
2018-03-26T09:30:35.709Z,11.59
2018-03-26T09:33:03.105Z,11.48
2018-03-26T09:35:30.493Z,11.59
2018-03-26T09:37:57.880Z,11.83
2018-03-26T09:40:25.276Z,12.28
2018-03-26T09:42:52.676Z,12.97
2018-03-26T09:45:20.069Z,12.53
2018-03-26T09:47:47.464Z,12.53
2018-03-26T09:50:14.856Z,12.21
2018-03-26T09:52:42.256Z,11.90
2018-03-26T09:55:09.658Z,12.10
2018-03-26T09:57:37.040Z,12.45
2018-03-26T10:00:04.433Z,12.95
2018-03-26T10:02:31.828Z,13.06
2018-03-26T10:04:59.221Z,12.97
2018-03-26T10:07:26.632Z,13.22
2018-03-26T10:09:54.011Z,13.56
2018-03-26T10:12:21.455Z,13.65
2018-03-26T10:14:48.821Z,13.36
2018-03-26T10:17:16.216Z,12.72
2018-03-26T10:19:43.635Z,12.33
2018-03-26T10:22:11.001Z,12.26
2018-03-26T10:24:38.389Z,12.58
2018-03-26T10:27:05.777Z,13.55
2018-03-26T10:29:33.169Z,14.28
2018-03-26T10:32:00.556Z,14.19
2018-03-26T10:34:27.952Z,14.48
2018-03-26T10:36:55.340Z,14.53
2018-03-26T10:39:22.749Z,13.93
2018-03-26T10:41:50.133Z,13.36
2018-03-26T10:44:17.538Z,13.44
2018-03-26T10:46:44.924Z,14.08
2018-03-26T10:49:12.368Z,14.66
2018-03-26T10:51:39.781Z,14.78
2018-03-26T10:54:07.159Z,14.67
2018-03-26T10:56:34.616Z,14.88
2018-03-26T10:59:02.009Z,14.55
2018-03-26T11:01:29.396Z,13.88
2018-03-26T11:03:56.790Z,13.86
2018-03-26T11:06:24.221Z,13.70
2018-03-26T11:08:51.604Z,13.33
2018-03-26T11:11:19.000Z,14.16
2018-03-26T11:13:46.398Z,14.03
2018-03-26T11:16:13.817Z,13.41
2018-03-26T11:18:41.200Z,13.45
2018-03-26T11:21:08.597Z,13.54
2018-03-26T11:23:35.993Z,13.67
2018-03-26T11:26:03.384Z,14.08
2018-03-26T11:28:30.776Z,14.54
2018-03-26T11:30:58.172Z,14.44
2018-03-26T11:33:25.563Z,14.51
2018-03-26T11:35:52.952Z,14.65
2018-03-26T11:38:20.352Z,15.03
2018-03-26T11:40:47.741Z,14.53
2018-03-26T11:43:15.130Z,14.19
2018-03-26T11:45:42.516Z,15.07
2018-03-26T11:48:10.912Z,15.50
2018-03-26T11:50:38.296Z,15.26
2018-03-26T11:53:05.683Z,14.81
2018-03-26T11:55:33.080Z,14.68
2018-03-26T11:58:00.480Z,14.38
2018-03-26T12:00:27.872Z,14.27
2018-03-26T12:02:55.268Z,14.27
2018-03-26T12:05:22.663Z,14.34
2018-03-26T12:07:50.063Z,14.13
2018-03-26T12:10:17.456Z,13.40
2018-03-26T12:12:44.847Z,13.06
2018-03-26T12:15:12.238Z,13.12
2018-03-26T12:17:39.632Z,13.17
2018-03-26T12:20:18.713Z,12.95
2018-03-26T12:22:46.501Z,12.97
2018-03-26T12:25:15.676Z,13.74
2018-03-26T12:27:54.981Z,14.12
2018-03-26T12:30:25.092Z,14.62
2018-03-26T12:32:52.491Z,15.39
2018-03-26T12:35:31.546Z,15.82
2018-03-26T12:37:58.936Z,15.74
2018-03-26T12:40:38.133Z,15.59
2018-03-26T12:43:05.531Z,14.97
2018-03-26T12:45:44.740Z,14.49
2018-03-26T12:48:12.164Z,14.54
2018-03-26T12:50:51.225Z,14.62
2018-03-26T12:53:18.646Z,14.37
2018-03-26T12:55:46.031Z,14.11
2018-03-26T12:58:25.054Z,14.32
2018-03-26T13:01:04.241Z,14.33
2018-03-26T13:03:31.644Z,14.23
2018-03-26T13:05:59.024Z,14.15
2018-03-26T13:08:26.407Z,13.94
2018-03-26T13:10:53.808Z,13.84
2018-03-26T13:13:21.193Z,13.28
2018-03-26T13:15:48.588Z,13.27
2018-03-26T13:18:15.976Z,13.18
2018-03-26T13:20:43.369Z,13.38
2018-03-26T13:23:10.758Z,13.20
2018-03-26T13:25:38.152Z,13.29
2018-03-26T13:28:05.548Z,13.23
2018-03-26T13:30:32.924Z,12.98
2018-03-26T13:33:00.308Z,12.91
2018-03-26T13:35:27.715Z,12.58
2018-03-26T13:37:55.100Z,12.65
2018-03-26T13:40:22.511Z,12.58
2018-03-26T13:42:49.892Z,12.37
2018-03-26T13:45:17.280Z,12.31
2018-03-26T13:47:44.905Z,12.63
2018-03-26T13:50:12.313Z,12.78
2018-03-26T13:52:39.726Z,13.07
2018-03-26T13:55:07.096Z,13.17
2018-03-26T13:57:34.488Z,13.42
2018-03-26T14:00:01.881Z,13.21
2018-03-26T14:02:29.276Z,13.41
2018-03-26T14:04:56.672Z,13.28
2018-03-26T14:07:24.060Z,13.42
2018-03-26T14:10:03.269Z,13.48
2018-03-26T14:12:42.542Z,13.57
2018-03-26T14:15:21.653Z,13.39
2018-03-26T14:17:49.417Z,13.56
2018-03-26T14:20:16.805Z,13.65
2018-03-26T14:22:44.200Z,13.44
2018-03-26T14:25:11.592Z,13.61
2018-03-26T14:27:38.994Z,13.64
2018-03-26T14:30:06.381Z,13.62
2018-03-26T14:32:33.780Z,13.72
2018-03-26T14:35:12.826Z,13.65
2018-03-26T14:37:40.217Z,13.59
2018-03-26T14:40:07.606Z,13.55
2018-03-26T14:42:35.845Z,13.56
2018-03-26T14:45:05.045Z,13.49
2018-03-26T14:47:32.432Z,13.74
2018-03-26T14:49:59.824Z,13.70
2018-03-26T14:52:27.210Z,13.75
2018-03-26T14:54:54.629Z,13.54
2018-03-26T14:57:22.013Z,13.09
2018-03-26T14:59:49.488Z,13.15
2018-03-26T15:02:16.948Z,13.07
2018-03-26T15:04:44.340Z,13.17
2018-03-26T15:07:11.732Z,13.04
2018-03-26T15:09:39.128Z,12.85
2018-03-26T15:12:06.516Z,13.29
2018-03-26T15:14:33.909Z,13.49
2018-03-26T15:17:01.294Z,13.47
2018-03-26T15:19:28.684Z,13.48
2018-03-26T15:21:56.081Z,13.65
2018-03-26T15:24:23.466Z,13.66
2018-03-26T15:26:50.856Z,13.38
2018-03-26T15:29:18.233Z,13.39
2018-03-26T15:34:35.824Z,13.31
2018-03-26T15:37:03.196Z,13.27
2018-03-26T15:39:30.592Z,13.17
2018-03-26T15:41:57.972Z,13.00
2018-03-26T15:44:25.361Z,13.15
2018-03-26T15:46:52.753Z,13.09
2018-03-26T15:49:20.136Z,13.18
2018-03-26T15:51:47.525Z,13.20
2018-03-26T15:54:14.916Z,13.18
2018-03-26T15:56:42.313Z,13.23
2018-03-26T15:59:09.704Z,13.27
2018-03-26T16:01:37.092Z,13.16
2018-03-26T16:04:04.488Z,13.10
2018-03-26T16:06:31.880Z,13.17
2018-03-26T16:08:59.256Z,13.20
2018-03-26T16:11:26.708Z,12.82
2018-03-26T16:13:54.088Z,12.58
2018-03-26T16:16:21.896Z,12.31
2018-03-26T16:18:49.284Z,12.14
2018-03-26T16:21:16.679Z,12.16
2018-03-26T16:23:44.056Z,12.11
2018-03-26T16:26:11.438Z,12.12
2018-03-26T16:28:38.825Z,11.98
2018-03-26T16:31:06.210Z,11.98
2018-03-26T16:33:33.601Z,11.85
2018-03-26T16:36:00.984Z,11.75
2018-03-26T16:38:28.373Z,11.79
2018-03-26T16:40:56.054Z,11.93
2018-03-26T16:43:23.487Z,11.98
2018-03-26T16:45:50.900Z,11.93
2018-03-26T16:48:18.254Z,11.91
2018-03-26T16:50:45.637Z,11.92
2018-03-26T16:53:13.040Z,11.93
2018-03-26T16:55:40.420Z,11.96
2018-03-26T16:58:07.829Z,11.95
2018-03-26T17:00:35.220Z,11.84
2018-03-26T17:03:02.610Z,11.84
2018-03-26T17:05:30.021Z,11.78
2018-03-26T17:07:57.421Z,11.75
2018-03-26T17:10:24.813Z,11.61
2018-03-26T17:12:52.200Z,11.47
2018-03-26T17:15:19.593Z,11.59
2018-03-26T17:17:47.008Z,11.65
2018-03-26T17:20:14.401Z,11.65
2018-03-26T17:22:41.788Z,11.67
2018-03-26T17:25:12.712Z,11.71
2018-03-26T17:27:40.100Z,11.71
2018-03-26T17:30:07.508Z,11.70
2018-03-26T17:32:34.902Z,11.61
2018-03-26T17:35:02.304Z,11.53
2018-03-26T17:37:29.693Z,11.49
2018-03-26T17:39:57.102Z,11.46
2018-03-26T17:42:24.479Z,11.34
2018-03-26T17:44:51.869Z,11.27
2018-03-26T17:47:19.288Z,11.19
2018-03-26T17:49:46.657Z,11.14
2018-03-26T17:52:14.037Z,11.06
2018-03-26T17:54:41.428Z,11.00
2018-03-26T17:57:08.816Z,10.96
2018-03-26T17:59:36.209Z,10.97
2018-03-26T18:02:03.624Z,10.95
2018-03-26T18:04:31.016Z,10.91
2018-03-26T18:06:58.405Z,10.88
2018-03-26T18:09:25.788Z,10.86
2018-03-26T18:11:53.193Z,10.84
2018-03-26T18:14:20.572Z,10.83
2018-03-26T18:16:47.980Z,10.81
2018-03-26T18:19:15.368Z,10.80
2018-03-26T18:21:42.784Z,10.82
2018-03-26T18:24:10.174Z,10.86
2018-03-26T18:26:37.558Z,10.85
2018-03-26T18:29:04.967Z,10.86
2018-03-26T18:31:32.353Z,10.83
2018-03-26T18:33:59.816Z,10.78
2018-03-26T18:36:27.201Z,10.82
2018-03-26T18:38:54.588Z,10.81
2018-03-26T18:41:21.984Z,10.77
2018-03-26T18:43:49.369Z,10.72
2018-03-26T18:46:16.865Z,10.68
2018-03-26T18:48:44.246Z,10.67
2018-03-26T18:51:11.628Z,10.68
2018-03-26T18:53:39.030Z,10.67
2018-03-26T18:56:06.436Z,10.63
2018-03-26T18:58:33.846Z,10.61
2018-03-26T19:01:01.257Z,10.58
2018-03-26T19:03:28.865Z,10.52
2018-03-26T19:05:56.309Z,10.51
2018-03-26T19:08:23.750Z,10.43
2018-03-26T19:10:51.104Z,10.42
2018-03-26T19:13:18.502Z,10.38
2018-03-26T19:15:45.942Z,10.39
2018-03-26T19:18:13.356Z,10.41
2018-03-26T19:20:40.853Z,10.39
2018-03-26T19:23:09.372Z,10.33
2018-03-26T19:25:36.791Z,10.34
2018-03-26T19:28:07.328Z,10.35
2018-03-26T19:30:34.720Z,10.32
2018-03-26T19:33:10.493Z,10.39
2018-03-26T19:35:37.908Z,10.42
2018-03-26T19:38:05.292Z,10.36
2018-03-26T19:40:32.714Z,10.30
2018-03-26T19:43:00.093Z,10.34
2018-03-26T19:45:27.487Z,10.29
2018-03-26T19:47:55.020Z,10.19
2018-03-26T19:50:22.418Z,10.02
2018-03-26T19:52:49.807Z,10.01
2018-03-26T19:55:17.221Z,10.00
2018-03-26T19:57:44.604Z,9.69
2018-03-26T20:00:11.989Z,9.68
2018-03-26T20:02:39.379Z,9.72
2018-03-26T20:05:06.777Z,9.83
2018-03-26T20:07:34.153Z,9.90
2018-03-26T20:10:01.533Z,9.88
2018-03-26T20:12:28.917Z,9.87
2018-03-26T20:14:56.307Z,9.93
2018-03-26T20:17:23.694Z,9.98
2018-03-26T20:19:51.104Z,10.06
2018-03-26T20:22:18.493Z,9.99
2018-03-26T20:24:45.896Z,9.99
2018-03-26T20:27:13.297Z,10.08
2018-03-26T20:29:40.716Z,10.02
2018-03-26T20:32:08.083Z,10.06
2018-03-26T20:34:35.469Z,10.01
2018-03-26T20:37:02.861Z,9.79
2018-03-26T20:39:30.252Z,9.65
2018-03-26T20:41:57.643Z,9.45
2018-03-26T20:44:25.028Z,9.51
2018-03-26T20:46:52.426Z,9.44
2018-03-26T20:49:19.869Z,9.22
2018-03-26T20:51:47.209Z,9.13
2018-03-26T20:54:14.601Z,9.16
2018-03-26T20:56:41.991Z,9.11
2018-03-26T20:59:09.392Z,9.14
2018-03-26T21:01:36.781Z,9.24
2018-03-26T21:04:04.156Z,9.22
2018-03-26T21:06:31.541Z,9.36
2018-03-26T21:08:58.924Z,9.50
2018-03-26T21:11:26.317Z,9.58
2018-03-26T21:13:53.705Z,9.69
2018-03-26T21:16:21.108Z,9.72
2018-03-26T21:18:48.498Z,9.79
2018-03-26T21:21:15.896Z,9.79
2018-03-26T21:23:43.307Z,9.78
2018-03-26T21:26:10.672Z,9.74
2018-03-26T21:28:38.065Z,9.69
2018-03-26T21:31:05.460Z,9.38
2018-03-26T21:33:32.873Z,9.20
2018-03-26T21:36:00.257Z,9.14
2018-03-26T21:38:27.649Z,9.17
2018-03-26T21:40:55.037Z,9.16
2018-03-26T21:43:22.428Z,9.18
2018-03-26T21:45:49.812Z,8.98
2018-03-26T21:48:17.189Z,9.01
2018-03-26T21:50:44.584Z,9.01
2018-03-26T21:53:11.983Z,8.91
2018-03-26T21:55:39.431Z,8.91
2018-03-26T21:58:06.742Z,8.91
2018-03-26T22:00:34.124Z,8.81
2018-03-26T22:03:01.609Z,8.69
2018-03-26T22:05:28.992Z,8.60
2018-03-26T22:07:56.401Z,8.53
2018-03-26T22:10:23.780Z,8.51
2018-03-26T22:12:51.163Z,8.48
2018-03-26T22:15:18.558Z,8.47
2018-03-26T22:17:45.946Z,8.45
2018-03-26T22:20:13.356Z,8.40
2018-03-26T22:22:40.737Z,8.22
2018-03-26T22:25:08.128Z,8.20
2018-03-26T22:27:35.516Z,8.09
2018-03-26T22:30:02.907Z,8.04
2018-03-26T22:32:30.303Z,7.95
2018-03-26T22:34:57.709Z,7.89
2018-03-26T22:37:25.101Z,7.82
2018-03-26T22:39:52.476Z,7.77
2018-03-26T22:42:19.877Z,7.71
2018-03-26T22:44:47.303Z,7.66
2018-03-26T22:47:14.648Z,7.60
2018-03-26T22:49:42.040Z,7.54
2018-03-26T22:52:09.425Z,7.46
2018-03-26T22:54:36.817Z,7.44
2018-03-26T22:57:04.204Z,7.36
2018-03-26T22:59:31.604Z,7.23
2018-03-26T23:01:58.988Z,7.19
2018-03-26T23:04:26.365Z,7.24
2018-03-26T23:06:53.756Z,7.21
2018-03-26T23:09:21.141Z,7.15
2018-03-26T23:11:48.530Z,7.12
2018-03-26T23:14:15.908Z,7.17
2018-03-26T23:16:43.309Z,7.13
2018-03-26T23:19:10.697Z,7.13
2018-03-26T23:21:38.081Z,7.10
2018-03-26T23:24:05.473Z,7.13
2018-03-26T23:26:32.872Z,7.10
2018-03-26T23:29:00.260Z,7.07
2018-03-26T23:31:27.639Z,7.07
2018-03-26T23:33:55.036Z,7.01
2018-03-26T23:36:22.432Z,6.93
2018-03-26T23:38:49.804Z,6.91
2018-03-26T23:41:17.197Z,6.88
2018-03-26T23:43:44.568Z,6.85
2018-03-26T23:46:11.956Z,6.83
2018-03-26T23:48:39.344Z,6.82
2018-03-26T23:51:06.748Z,6.82
2018-03-26T23:53:34.129Z,6.81
2018-03-26T23:56:01.508Z,6.79
2018-03-26T23:58:28.898Z,6.82
